createdAt,value
2019-03-20T00:01:08.502Z,14.40
2019-03-20T00:03:37.984Z,14.93
2019-03-20T00:06:07.128Z,13.23
2019-03-20T00:08:36.264Z,15.30
2019-03-20T00:11:05.531Z,17.40
2019-03-20T00:13:34.648Z,14.17
2019-03-20T00:16:03.790Z,12.57
2019-03-20T00:18:32.921Z,12.43
2019-03-20T00:21:02.071Z,13.73
2019-03-20T00:23:31.208Z,21.83
2019-03-20T00:26:00.334Z,22.37
2019-03-20T00:28:29.483Z,23.43
2019-03-20T00:30:58.607Z,28.70
2019-03-20T00:33:27.731Z,27.63
2019-03-20T00:35:56.887Z,25.07
2019-03-20T00:38:26.019Z,25.20
2019-03-20T00:40:55.141Z,28.87
2019-03-20T00:43:24.278Z,27.77
2019-03-20T00:45:53.471Z,26.47
2019-03-20T00:48:22.639Z,21.57
2019-03-20T00:50:51.786Z,20.90
2019-03-20T00:53:20.948Z,20.90
2019-03-20T00:55:50.100Z,19.13
2019-03-20T00:58:19.267Z,17.77
2019-03-20T01:00:48.651Z,19.53
2019-03-20T01:03:17.887Z,21.17
2019-03-20T01:05:47.009Z,22.77
2019-03-20T01:08:16.143Z,20.93
2019-03-20T01:10:45.283Z,27.30
2019-03-20T01:13:14.416Z,25.10
2019-03-20T01:15:43.578Z,22.77
2019-03-20T01:18:12.858Z,22.90
2019-03-20T01:20:42.017Z,24.97
2019-03-20T01:23:11.202Z,22.00
2019-03-20T01:25:40.416Z,21.50
2019-03-20T01:28:09.568Z,29.03
2019-03-20T01:30:38.948Z,29.40
2019-03-20T01:33:11.653Z,29.83
2019-03-20T01:35:41.216Z,28.17
2019-03-20T01:38:10.779Z,25.63
2019-03-20T01:40:40.762Z,25.00
2019-03-20T01:43:10.434Z,31.27
2019-03-20T01:45:39.584Z,33.37
2019-03-20T01:48:08.711Z,32.30
2019-03-20T01:50:37.842Z,31.80
2019-03-20T01:53:07.070Z,26.90
2019-03-20T01:55:36.660Z,33.57
2019-03-20T01:58:05.832Z,31.70
2019-03-20T02:00:35.080Z,30.53
2019-03-20T02:03:04.429Z,31.53
2019-03-20T02:05:36.111Z,31.63
2019-03-20T02:08:04.509Z,30.97
2019-03-20T02:10:33.660Z,29.10
2019-03-20T02:13:02.786Z,30.07
2019-03-20T02:15:38.621Z,30.23
2019-03-20T02:18:02.809Z,31.20
2019-03-20T02:20:31.994Z,29.13
2019-03-20T02:23:01.149Z,28.17
2019-03-20T02:25:32.282Z,27.83
2019-03-20T02:28:01.141Z,28.17
2019-03-20T02:30:30.222Z,27.23
2019-03-20T02:32:59.343Z,23.53
2019-03-20T02:35:28.505Z,25.80
2019-03-20T02:37:57.609Z,26.67
2019-03-20T02:40:26.753Z,25.63
2019-03-20T02:42:55.880Z,24.47
2019-03-20T02:45:25.012Z,24.80
2019-03-20T02:47:54.157Z,23.60
2019-03-20T02:50:23.276Z,24.93
2019-03-20T02:52:52.442Z,22.97
2019-03-20T02:55:21.606Z,22.67
2019-03-20T02:57:50.828Z,22.80
2019-03-20T03:00:20.306Z,24.97
2019-03-20T03:02:49.426Z,25.03
2019-03-20T03:05:18.817Z,21.37
2019-03-20T03:07:47.984Z,21.73
2019-03-20T03:10:17.649Z,20.97
2019-03-20T03:12:46.894Z,21.20
2019-03-20T03:15:16.508Z,21.70
2019-03-20T03:17:45.665Z,22.90
2019-03-20T03:20:14.816Z,23.70
2019-03-20T03:22:43.974Z,22.20
2019-03-20T03:25:14.619Z,20.60
2019-03-20T03:27:43.761Z,21.53
2019-03-20T03:30:13.078Z,21.03
2019-03-20T03:32:42.237Z,23.73
2019-03-20T03:35:16.880Z,23.47
2019-03-20T03:37:42.274Z,23.43
2019-03-20T03:40:11.771Z,23.50
2019-03-20T03:42:40.938Z,24.47
2019-03-20T03:45:11.115Z,24.63
2019-03-20T03:47:40.294Z,22.87
2019-03-20T03:50:09.826Z,22.30
2019-03-20T03:52:39.036Z,20.60
2019-03-20T03:55:08.351Z,23.20
2019-03-20T03:57:37.640Z,22.07
2019-03-20T04:00:07.801Z,19.37
2019-03-20T04:02:36.966Z,19.07
2019-03-20T04:05:06.240Z,20.43
2019-03-20T04:07:35.374Z,21.00
2019-03-20T04:10:05.289Z,19.03
2019-03-20T04:12:34.406Z,18.43
2019-03-20T04:15:03.615Z,18.30
2019-03-20T04:17:32.774Z,18.10
2019-03-20T04:20:01.979Z,20.23
2019-03-20T04:22:31.222Z,18.60
2019-03-20T04:25:00.480Z,18.87
2019-03-20T04:27:29.679Z,16.40
2019-03-20T04:29:58.813Z,17.47
2019-03-20T04:32:27.938Z,19.17
2019-03-20T04:34:57.084Z,20.47
2019-03-20T04:37:26.239Z,22.03
2019-03-20T04:39:55.509Z,18.20
2019-03-20T04:42:24.631Z,17.27
2019-03-20T04:44:53.776Z,16.77
2019-03-20T04:47:22.938Z,16.60
2019-03-20T04:49:52.066Z,19.93
2019-03-20T04:52:21.234Z,17.63
2019-03-20T04:54:50.384Z,18.73
2019-03-20T04:57:19.613Z,16.73
2019-03-20T04:59:48.768Z,17.30
2019-03-20T05:02:17.907Z,18.10
2019-03-20T05:04:47.055Z,17.97
2019-03-20T05:07:16.180Z,16.07
2019-03-20T05:09:45.316Z,14.33
2019-03-20T05:12:14.469Z,13.33
2019-03-20T05:14:43.675Z,15.00
2019-03-20T05:17:12.839Z,14.00
2019-03-20T05:19:42.005Z,12.40
2019-03-20T05:22:11.126Z,13.97
2019-03-20T05:24:40.265Z,13.43
2019-03-20T05:27:09.406Z,13.93
2019-03-20T05:29:38.527Z,13.50
2019-03-20T05:32:07.664Z,14.47
2019-03-20T05:34:36.861Z,13.13
2019-03-20T05:37:10.253Z,12.93
2019-03-20T05:39:36.995Z,14.47
2019-03-20T05:42:06.197Z,11.40
2019-03-20T05:44:35.711Z,12.03
2019-03-20T05:47:04.871Z,12.77
2019-03-20T05:49:34.028Z,11.50
2019-03-20T05:52:03.232Z,12.90
2019-03-20T05:54:32.428Z,12.60
2019-03-20T05:57:01.587Z,13.13
2019-03-20T05:59:30.752Z,16.80
2019-03-20T06:01:59.942Z,17.23
2019-03-20T06:04:29.060Z,14.50
2019-03-20T06:06:58.250Z,16.00
2019-03-20T06:09:27.419Z,14.20
2019-03-20T06:11:56.576Z,12.77
2019-03-20T06:14:25.748Z,13.57
2019-03-20T06:16:54.906Z,13.83
2019-03-20T06:19:24.045Z,18.67
2019-03-20T06:21:53.175Z,21.67
2019-03-20T06:24:22.362Z,19.57
2019-03-20T06:26:51.588Z,21.60
2019-03-20T06:29:20.723Z,20.47
2019-03-20T06:31:49.871Z,18.97
2019-03-20T06:34:19.019Z,19.30
2019-03-20T06:36:48.144Z,16.77
2019-03-20T06:39:17.292Z,15.97
2019-03-20T06:41:46.444Z,14.80
2019-03-20T06:44:15.647Z,12.30
2019-03-20T06:46:44.767Z,13.00
2019-03-20T06:49:13.890Z,13.23
2019-03-20T06:51:43.033Z,15.73
2019-03-20T06:54:12.256Z,13.83
2019-03-20T06:56:41.489Z,14.57
2019-03-20T07:00:12.758Z,15.80
2019-03-20T07:02:45.752Z,16.10
2019-03-20T07:06:08.300Z,14.40
2019-03-20T07:08:45.505Z,13.70
2019-03-20T07:11:16.756Z,15.77
2019-03-20T07:13:45.864Z,17.47
2019-03-20T07:16:15.003Z,17.70
2019-03-20T07:18:44.209Z,16.23
2019-03-20T07:21:13.422Z,15.17
2019-03-20T07:23:42.617Z,14.80
2019-03-20T07:26:11.799Z,17.07
2019-03-20T07:28:41.028Z,15.47
2019-03-20T07:31:15.204Z,15.13
2019-03-20T07:33:40.992Z,17.37
2019-03-20T07:36:10.341Z,15.33
2019-03-20T07:38:39.503Z,14.10
2019-03-20T07:41:08.637Z,16.27
2019-03-20T07:43:37.793Z,13.97
2019-03-20T07:46:06.945Z,15.03
2019-03-20T07:48:36.109Z,14.93
2019-03-20T07:51:05.218Z,14.67
2019-03-20T07:53:34.373Z,15.03
2019-03-20T07:56:03.495Z,14.13
2019-03-20T07:58:32.638Z,15.80
2019-03-20T08:01:01.848Z,13.53
2019-03-20T08:03:30.974Z,13.40
2019-03-20T08:06:00.101Z,14.27
2019-03-20T08:08:29.251Z,12.70
2019-03-20T08:10:58.377Z,15.20
2019-03-20T08:13:27.549Z,14.50
2019-03-20T08:15:56.673Z,16.23
2019-03-20T08:18:25.863Z,15.23
2019-03-20T08:20:55.024Z,14.63
2019-03-20T08:23:24.215Z,17.20
2019-03-20T08:25:53.376Z,16.83
2019-03-20T08:28:22.853Z,17.30
2019-03-20T08:30:51.979Z,18.10
2019-03-20T08:33:21.396Z,16.30
2019-03-20T08:35:50.559Z,17.73
2019-03-20T08:38:19.802Z,18.00
2019-03-20T08:40:48.967Z,16.20
2019-03-20T08:43:18.227Z,15.97
2019-03-20T08:45:47.393Z,15.30
2019-03-20T08:48:16.625Z,18.57
2019-03-20T08:50:45.804Z,14.70
2019-03-20T08:53:14.923Z,16.63
2019-03-20T08:55:44.065Z,15.83
2019-03-20T08:58:13.222Z,16.37
2019-03-20T09:00:42.345Z,12.23
2019-03-20T09:03:11.484Z,10.23
2019-03-20T09:05:40.628Z,10.53
2019-03-20T09:08:09.803Z,7.30
2019-03-20T09:10:38.970Z,8.83
2019-03-20T09:13:08.083Z,7.77
2019-03-20T09:15:37.199Z,8.57
2019-03-20T09:18:06.324Z,7.10
2019-03-20T09:20:35.518Z,6.77
2019-03-20T09:23:04.666Z,8.03
2019-03-20T09:25:33.811Z,5.67
2019-03-20T09:28:02.973Z,7.10
2019-03-20T09:30:32.063Z,6.07
2019-03-20T09:33:01.245Z,5.93
2019-03-20T09:35:30.511Z,6.63
2019-03-20T09:37:59.692Z,5.80
2019-03-20T09:40:28.916Z,5.03
2019-03-20T09:42:58.034Z,6.57
2019-03-20T09:45:27.148Z,4.93
2019-03-20T09:47:56.268Z,3.80
2019-03-20T09:50:25.367Z,2.50
2019-03-20T09:52:54.484Z,2.13
2019-03-20T09:55:23.670Z,4.40
2019-03-20T09:57:52.794Z,3.70
2019-03-20T10:00:22.870Z,3.33
2019-03-20T10:02:52.354Z,3.13
2019-03-20T10:05:22.102Z,2.73
2019-03-20T10:07:51.522Z,1.87
2019-03-20T10:10:21.705Z,2.00
2019-03-20T10:12:50.870Z,2.60
2019-03-20T10:15:20.168Z,2.33
2019-03-20T10:17:49.298Z,2.20
2019-03-20T10:20:19.630Z,3.07
2019-03-20T10:22:48.716Z,3.30
2019-03-20T10:25:18.428Z,3.67
2019-03-20T10:27:47.571Z,3.63
2019-03-20T10:30:20.872Z,3.47
2019-03-20T10:32:50.041Z,2.97
2019-03-20T10:35:19.974Z,3.23
2019-03-20T10:37:49.092Z,3.83
2019-03-20T10:40:19.727Z,2.87
2019-03-20T10:42:48.911Z,3.37
2019-03-20T10:45:18.032Z,2.90
2019-03-20T10:47:47.596Z,3.13
2019-03-20T10:50:18.383Z,2.20
2019-03-20T10:52:47.563Z,2.87
2019-03-20T10:55:16.741Z,4.13
2019-03-20T10:57:46.013Z,2.83
2019-03-20T11:00:17.516Z,3.00
2019-03-20T11:02:46.797Z,3.00
2019-03-20T11:05:16.197Z,3.13
2019-03-20T11:07:45.302Z,3.93
2019-03-20T11:10:16.828Z,3.30
2019-03-20T11:12:45.971Z,2.73
2019-03-20T11:15:15.727Z,4.43
2019-03-20T11:17:44.867Z,3.63
2019-03-20T11:20:15.632Z,4.10
2019-03-20T11:22:44.840Z,4.10
2019-03-20T11:25:15.323Z,4.87
2019-03-20T11:27:44.484Z,4.63
2019-03-20T11:30:18.862Z,4.53
2019-03-20T11:32:48.860Z,4.07
2019-03-20T11:35:17.986Z,4.10
2019-03-20T11:37:47.164Z,4.07
2019-03-20T11:40:24.748Z,3.30
2019-03-20T11:42:53.903Z,3.43
2019-03-20T11:45:23.688Z,2.17
2019-03-20T11:47:53.214Z,3.60
2019-03-20T11:50:24.694Z,2.80
2019-03-20T11:52:53.822Z,2.70
2019-03-20T11:55:22.943Z,2.50
2019-03-20T11:57:52.073Z,3.43
2019-03-20T12:00:21.234Z,2.30
2019-03-20T12:02:50.411Z,2.23
2019-03-20T12:05:19.562Z,1.73
2019-03-20T12:07:48.721Z,2.17
2019-03-20T12:10:19.943Z,1.80
2019-03-20T12:12:49.076Z,1.40
2019-03-20T12:15:18.253Z,1.87
2019-03-20T12:17:47.382Z,2.10
2019-03-20T12:20:17.901Z,1.60
2019-03-20T12:22:47.325Z,1.87
2019-03-20T12:25:18.478Z,1.30
2019-03-20T12:27:47.641Z,1.47
2019-03-20T12:30:19.087Z,1.40
2019-03-20T12:32:48.301Z,1.43
2019-03-20T12:35:17.489Z,1.67
2019-03-20T12:37:46.643Z,2.10
2019-03-20T12:40:24.033Z,1.60
2019-03-20T12:42:53.232Z,1.73
2019-03-20T12:45:24.287Z,2.20
2019-03-20T12:47:53.420Z,1.40
2019-03-20T12:50:22.677Z,1.50
2019-03-20T12:52:51.783Z,1.50
2019-03-20T12:55:21.671Z,1.40
2019-03-20T12:57:50.929Z,1.57
2019-03-20T13:00:21.593Z,1.67
2019-03-20T13:02:50.755Z,1.80
2019-03-20T13:05:19.896Z,1.80
2019-03-20T13:07:49.110Z,1.83
2019-03-20T13:10:19.399Z,1.37
2019-03-20T13:12:48.511Z,1.77
2019-03-20T13:15:19.339Z,1.87
2019-03-20T13:17:48.805Z,1.67
2019-03-20T13:20:18.003Z,1.13
2019-03-20T13:22:59.067Z,1.63
2019-03-20T13:25:28.238Z,1.33
2019-03-20T13:27:57.385Z,1.10
2019-03-20T13:30:29.177Z,1.30
2019-03-20T13:32:58.332Z,1.60
2019-03-20T13:35:27.460Z,1.47
2019-03-20T13:37:56.627Z,1.03
2019-03-20T13:40:25.856Z,1.20
2019-03-20T13:42:55.027Z,1.30
2019-03-20T13:45:24.247Z,1.27
2019-03-20T13:47:53.351Z,1.07
2019-03-20T13:50:22.499Z,1.50
2019-03-20T13:52:51.672Z,1.53
2019-03-20T13:55:20.830Z,0.97
2019-03-20T13:57:49.997Z,1.73
2019-03-20T14:00:20.607Z,1.07
2019-03-20T14:02:49.774Z,1.70
2019-03-20T14:05:19.348Z,0.90
2019-03-20T14:07:48.483Z,1.47
2019-03-20T14:10:25.108Z,1.07
2019-03-20T14:12:50.288Z,1.10
2019-03-20T14:15:20.486Z,1.77
2019-03-20T14:17:49.635Z,1.20
2019-03-20T14:20:23.090Z,1.20
2019-03-20T14:22:52.210Z,0.80
2019-03-20T14:25:21.437Z,1.00
2019-03-20T14:27:50.632Z,0.97
2019-03-20T14:30:24.226Z,1.20
2019-03-20T14:32:53.434Z,0.90
2019-03-20T14:35:22.694Z,1.60
2019-03-20T14:37:51.886Z,1.13
2019-03-20T14:40:23.454Z,1.13
2019-03-20T14:42:52.686Z,2.00
2019-03-20T14:45:21.916Z,1.13
2019-03-20T14:47:51.046Z,1.53
2019-03-20T14:50:22.084Z,1.40
2019-03-20T14:52:51.262Z,1.50
2019-03-20T14:55:20.407Z,1.43
2019-03-20T14:57:49.543Z,0.77
2019-03-20T15:00:22.911Z,1.10
2019-03-20T15:02:52.084Z,1.10
2019-03-20T15:05:21.224Z,1.30
2019-03-20T15:07:50.876Z,1.40
2019-03-20T15:10:20.944Z,1.23
2019-03-20T15:12:50.202Z,1.07
2019-03-20T15:15:28.378Z,1.30
2019-03-20T15:17:57.510Z,0.70
2019-03-20T15:20:26.640Z,1.67
2019-03-20T15:22:55.823Z,1.17
2019-03-20T15:25:24.942Z,1.30
2019-03-20T15:27:54.105Z,1.53
2019-03-20T15:30:23.265Z,1.73
2019-03-20T15:32:52.428Z,1.40
2019-03-20T15:35:21.573Z,1.00
2019-03-20T15:37:50.696Z,1.17
2019-03-20T15:40:19.873Z,1.00
2019-03-20T15:42:49.018Z,1.03
2019-03-20T15:45:18.218Z,1.87
2019-03-20T15:47:47.323Z,1.37
2019-03-20T15:50:16.993Z,1.03
2019-03-20T15:52:46.254Z,1.10
2019-03-20T15:55:18.230Z,1.20
2019-03-20T15:57:47.493Z,1.40
2019-03-20T16:00:18.085Z,1.70
2019-03-20T16:02:48.165Z,0.80
2019-03-20T16:05:17.315Z,1.80
2019-03-20T16:07:46.521Z,2.20
2019-03-20T16:10:17.900Z,1.63
2019-03-20T16:12:47.115Z,1.60
2019-03-20T16:15:17.781Z,1.43
2019-03-20T16:17:47.036Z,2.07
2019-03-20T16:20:16.275Z,1.20
2019-03-20T16:22:45.505Z,1.40
2019-03-20T16:25:15.033Z,0.90
2019-03-20T16:27:44.283Z,1.13
2019-03-20T16:30:18.592Z,1.30
2019-03-20T16:32:47.759Z,1.00
2019-03-20T16:35:16.893Z,1.20
2019-03-20T16:37:46.048Z,1.20
2019-03-20T16:40:19.516Z,1.33
2019-03-20T16:42:48.695Z,1.40
2019-03-20T16:45:25.733Z,1.00
2019-03-20T16:47:54.877Z,1.10
2019-03-20T16:50:23.992Z,0.90
2019-03-20T16:52:53.136Z,1.30
2019-03-20T16:55:22.361Z,0.97
2019-03-20T16:57:51.529Z,0.83
2019-03-20T17:00:22.899Z,1.33
2019-03-20T17:02:52.318Z,0.97
2019-03-20T17:05:21.695Z,1.50
2019-03-20T17:07:50.908Z,1.27
2019-03-20T17:10:25.257Z,1.30
2019-03-20T17:12:54.438Z,1.10
2019-03-20T17:15:24.673Z,1.17
2019-03-20T17:17:53.897Z,0.97
2019-03-20T17:20:23.045Z,0.80
2019-03-20T17:22:52.244Z,1.20
2019-03-20T17:25:21.460Z,1.17
2019-03-20T17:27:50.662Z,1.33
2019-03-20T17:30:24.727Z,1.10
2019-03-20T17:32:53.875Z,0.97
2019-03-20T17:35:23.038Z,1.13
2019-03-20T17:37:52.205Z,1.73
2019-03-20T17:40:21.435Z,0.80
2019-03-20T17:42:50.595Z,1.10
2019-03-20T17:45:20.375Z,1.00
2019-03-20T17:47:49.557Z,0.93
2019-03-20T17:50:23.539Z,1.10
2019-03-20T17:52:52.837Z,1.20
2019-03-20T17:55:22.025Z,1.03
2019-03-20T17:57:51.197Z,0.80
2019-03-20T18:00:44.052Z,1.27
2019-03-20T18:03:13.314Z,1.03
2019-03-20T18:05:42.478Z,1.10
2019-03-20T18:08:11.653Z,1.20
2019-03-20T18:10:41.877Z,1.53
2019-03-20T18:13:11.031Z,1.50
2019-03-20T18:15:40.279Z,1.47
2019-03-20T18:18:09.516Z,1.37
2019-03-20T18:20:39.246Z,2.10
2019-03-20T18:23:08.789Z,1.97
2019-03-20T18:25:37.949Z,1.93
2019-03-20T18:28:07.158Z,1.80
2019-03-20T18:30:36.856Z,2.10
2019-03-20T18:33:05.975Z,2.10
2019-03-20T18:35:35.124Z,1.67
2019-03-20T18:38:04.681Z,1.77
2019-03-20T18:40:33.893Z,2.17
2019-03-20T18:43:03.037Z,2.10
2019-03-20T18:45:32.223Z,1.93
2019-03-20T18:48:01.401Z,2.13
2019-03-20T18:50:30.623Z,1.50
2019-03-20T18:52:59.801Z,1.53
2019-03-20T18:55:29.018Z,1.83
2019-03-20T18:57:58.274Z,2.40
2019-03-20T19:00:27.618Z,3.43
2019-03-20T19:02:57.260Z,3.00
2019-03-20T19:05:53.474Z,1.73
2019-03-20T19:08:22.375Z,1.40
2019-03-20T19:10:51.695Z,2.30
2019-03-20T19:13:24.547Z,4.67
2019-03-20T19:15:54.078Z,5.83
2019-03-20T19:18:23.267Z,6.93
2019-03-20T19:20:52.676Z,5.77
2019-03-20T19:23:23.972Z,4.23
2019-03-20T19:25:53.212Z,8.50
2019-03-20T19:28:22.423Z,5.47
2019-03-20T19:30:53.736Z,3.30
2019-03-20T19:33:22.926Z,2.37
2019-03-20T19:35:52.476Z,1.90
2019-03-20T19:38:21.628Z,1.73
2019-03-20T19:40:50.795Z,1.53
2019-03-20T19:43:22.590Z,1.63
2019-03-20T19:45:50.879Z,1.60
2019-03-20T19:48:20.042Z,1.50
2019-03-20T19:50:49.215Z,1.33
2019-03-20T19:53:18.411Z,1.23
2019-03-20T19:55:47.597Z,1.30
2019-03-20T19:58:16.766Z,1.50
2019-03-20T20:00:45.964Z,2.00
2019-03-20T20:03:15.114Z,5.47
2019-03-20T20:05:44.350Z,4.90
2019-03-20T20:08:13.616Z,4.57
2019-03-20T20:10:42.771Z,3.30
2019-03-20T20:13:11.985Z,2.80
2019-03-20T20:15:41.223Z,3.40
2019-03-20T20:18:10.372Z,2.97
2019-03-20T20:20:39.495Z,3.03
2019-03-20T20:23:08.641Z,3.17
2019-03-20T20:25:37.836Z,3.10
2019-03-20T20:28:06.990Z,2.63
2019-03-20T20:30:36.161Z,2.70
2019-03-20T20:33:05.356Z,3.83
2019-03-20T20:35:34.511Z,3.83
2019-03-20T20:38:03.861Z,4.23
2019-03-20T20:40:33.083Z,3.67
2019-03-20T20:43:07.023Z,3.10
2019-03-20T20:45:36.159Z,2.83
2019-03-20T20:48:05.363Z,3.77
2019-03-20T20:50:34.504Z,3.30
2019-03-20T20:53:03.636Z,2.73
2019-03-20T20:55:32.781Z,2.60
2019-03-20T20:58:01.965Z,3.43
2019-03-20T21:00:31.127Z,4.40
2019-03-20T21:03:00.434Z,4.07
2019-03-20T21:05:29.634Z,3.77
2019-03-20T21:07:58.825Z,4.23
2019-03-20T21:10:27.980Z,4.47
2019-03-20T21:12:57.736Z,3.83
2019-03-20T21:15:44.559Z,3.67
2019-03-20T21:18:54.050Z,3.67
2019-03-20T21:21:24.201Z,2.50
2019-03-20T21:24:27.331Z,2.13
2019-03-20T21:27:40.462Z,2.37
2019-03-20T21:30:55.605Z,3.00
2019-03-20T21:34:14.766Z,2.83
2019-03-20T21:37:20.783Z,3.57
2019-03-20T21:39:50.483Z,3.40
2019-03-20T21:43:06.976Z,4.23
2019-03-20T21:45:37.545Z,4.83
2019-03-20T21:48:07.220Z,4.90
2019-03-20T21:51:20.446Z,4.70
2019-03-20T21:54:17.945Z,5.13
2019-03-20T21:57:19.943Z,4.50
2019-03-20T22:00:57.655Z,4.57
2019-03-20T22:03:27.308Z,4.27
2019-03-20T22:06:33.015Z,4.33
2019-03-20T22:09:17.248Z,3.97
2019-03-20T22:12:12.364Z,4.07
2019-03-20T22:14:43.075Z,3.77
2019-03-20T22:17:50.159Z,4.80
2019-03-20T22:20:49.174Z,5.60
2019-03-20T22:23:32.017Z,5.53
2019-03-20T22:26:51.038Z,4.60
2019-03-20T22:29:24.989Z,4.20
2019-03-20T22:32:43.920Z,4.47
2019-03-20T22:36:09.594Z,5.67
2019-03-20T22:39:08.901Z,4.83
2019-03-20T22:42:31.154Z,4.63
2019-03-20T22:45:12.691Z,5.03
2019-03-20T22:48:18.574Z,5.30
2019-03-20T22:51:22.421Z,5.43
2019-03-20T22:54:47.602Z,5.80
2019-03-20T22:57:31.520Z,6.03
2019-03-20T23:00:01.181Z,5.10
2019-03-20T23:03:20.476Z,5.10
2019-03-20T23:05:50.212Z,4.80
2019-03-20T23:08:19.943Z,5.10
2019-03-20T23:10:50.881Z,5.83
2019-03-20T23:13:20.534Z,5.33
2019-03-20T23:15:50.660Z,6.07
2019-03-20T23:18:20.410Z,5.37
2019-03-20T23:20:50.092Z,5.13
2019-03-20T23:23:19.788Z,5.37
2019-03-20T23:25:49.434Z,5.03
2019-03-20T23:28:19.236Z,5.60
2019-03-20T23:30:48.971Z,6.03
2019-03-20T23:33:18.624Z,5.97
2019-03-20T23:35:48.283Z,6.43
2019-03-20T23:38:17.970Z,6.33
2019-03-20T23:40:47.608Z,6.60
2019-03-20T23:43:17.347Z,7.27
2019-03-20T23:45:47.022Z,5.37
2019-03-20T23:48:46.660Z,5.93
2019-03-20T23:51:18.040Z,6.57
2019-03-20T23:53:50.442Z,6.97
2019-03-20T23:56:20.115Z,6.00
2019-03-20T23:58:49.776Z,5.37
